createdAt,value
2022-08-28T00:00:13.398Z,18.65
2022-08-28T00:01:12.136Z,18.67
2022-08-28T00:02:12.288Z,18.68
2022-08-28T00:03:11.656Z,18.69
2022-08-28T00:04:11.393Z,18.69
2022-08-28T00:05:12.088Z,18.68
2022-08-28T00:06:11.417Z,18.68
2022-08-28T00:07:11.403Z,18.69
2022-08-28T00:08:11.788Z,18.69
2022-08-28T00:09:15.412Z,18.68
2022-08-28T00:10:12.118Z,18.67
2022-08-28T00:11:11.305Z,18.66
2022-08-28T00:12:11.431Z,18.65
2022-08-28T00:13:11.645Z,18.65
2022-08-28T00:14:12.116Z,18.64
2022-08-28T00:15:15.785Z,18.67
2022-08-28T00:16:12.267Z,18.67
2022-08-28T00:17:11.594Z,18.67
2022-08-28T00:18:44.514Z,18.68
2022-08-28T00:19:11.801Z,18.68
2022-08-28T00:20:12.318Z,18.68
2022-08-28T00:21:11.548Z,18.67
2022-08-28T00:22:11.699Z,18.68
2022-08-28T00:23:12.437Z,18.68
2022-08-28T00:24:11.800Z,18.69
2022-08-28T00:25:12.202Z,18.68
2022-08-28T00:26:11.436Z,18.69
2022-08-28T00:27:11.708Z,18.70
2022-08-28T00:28:13.482Z,18.68
2022-08-28T00:29:11.578Z,18.69
2022-08-28T00:30:12.319Z,18.69
2022-08-28T00:31:11.972Z,18.68
2022-08-28T00:32:11.133Z,18.69
2022-08-28T00:33:14.499Z,18.70
2022-08-28T00:34:11.609Z,18.69
2022-08-28T00:35:11.876Z,18.68
2022-08-28T00:36:12.165Z,18.66
2022-08-28T00:37:11.547Z,18.66
2022-08-28T00:38:12.052Z,18.67
2022-08-28T00:39:11.790Z,18.68
2022-08-28T00:40:11.748Z,18.68
2022-08-28T00:41:11.845Z,18.68
2022-08-28T00:42:11.407Z,18.68
2022-08-28T00:43:11.909Z,18.67
2022-08-28T00:44:12.178Z,18.68
2022-08-28T00:45:11.351Z,18.68
2022-08-28T00:46:11.889Z,18.68
2022-08-28T00:47:11.878Z,18.68
2022-08-28T00:48:12.037Z,18.68
2022-08-28T00:49:11.347Z,18.67
2022-08-28T00:50:11.885Z,18.66
2022-08-28T00:51:12.411Z,18.65
2022-08-28T00:52:12.429Z,18.66
2022-08-28T00:53:11.486Z,18.65
2022-08-28T00:54:12.146Z,18.65
2022-08-28T00:55:11.109Z,18.66
2022-08-28T00:56:17.361Z,18.66
2022-08-28T00:57:11.758Z,18.65
2022-08-28T00:58:12.349Z,18.65
2022-08-28T00:59:11.682Z,18.65
2022-08-28T01:00:12.691Z,18.65
2022-08-28T01:01:11.934Z,18.65
2022-08-28T01:02:12.049Z,18.64
2022-08-28T01:03:11.728Z,18.64
2022-08-28T01:04:11.899Z,18.64
2022-08-28T01:05:12.107Z,18.64
2022-08-28T01:06:11.228Z,18.63
2022-08-28T01:07:10.955Z,18.64
2022-08-28T01:08:11.743Z,18.64
2022-08-28T01:09:12.303Z,18.63
2022-08-28T01:10:11.664Z,18.63
2022-08-28T01:11:11.840Z,18.63
2022-08-28T01:12:12.050Z,18.63
2022-08-28T01:13:11.647Z,18.63
2022-08-28T01:14:11.382Z,18.62
2022-08-28T01:15:11.636Z,18.63
2022-08-28T01:16:12.269Z,18.63
2022-08-28T01:17:11.564Z,18.62
2022-08-28T01:18:12.591Z,18.62
2022-08-28T01:19:12.073Z,18.62
2022-08-28T01:20:11.357Z,18.63
2022-08-28T01:21:11.927Z,18.63
2022-08-28T01:22:11.673Z,18.62
2022-08-28T01:23:12.141Z,18.61
2022-08-28T01:24:11.799Z,18.62
2022-08-28T01:25:12.431Z,18.62
2022-08-28T01:26:15.600Z,18.62
2022-08-28T01:27:11.453Z,18.62
2022-08-28T01:28:12.077Z,18.60
2022-08-28T01:29:11.501Z,18.60
2022-08-28T01:30:11.691Z,18.61
2022-08-28T01:31:12.038Z,18.60
2022-08-28T01:32:12.494Z,18.60
2022-08-28T01:33:12.151Z,18.60
2022-08-28T01:34:11.196Z,18.60
2022-08-28T01:35:16.711Z,18.58
2022-08-28T01:36:11.962Z,18.59
2022-08-28T01:37:11.975Z,18.58
2022-08-28T01:38:12.342Z,18.57
2022-08-28T01:39:11.847Z,18.56
2022-08-28T01:40:12.447Z,18.55
2022-08-28T01:41:11.456Z,18.56
2022-08-28T01:42:11.722Z,18.56
2022-08-28T01:43:11.628Z,18.56
2022-08-28T01:44:11.443Z,18.55
2022-08-28T01:45:11.831Z,18.55
2022-08-28T01:46:12.388Z,18.55
2022-08-28T01:47:12.000Z,18.54
2022-08-28T01:48:11.470Z,18.54
2022-08-28T01:49:11.731Z,18.53
2022-08-28T01:50:12.104Z,18.53
2022-08-28T01:51:11.650Z,18.51
2022-08-28T01:52:13.944Z,18.50
2022-08-28T01:53:16.606Z,18.51
2022-08-28T01:54:13.621Z,18.51
2022-08-28T01:55:11.749Z,18.50
2022-08-28T01:56:12.007Z,18.51
2022-08-28T01:57:11.187Z,18.51
2022-08-28T01:58:11.630Z,18.52
2022-08-28T01:59:11.966Z,18.53
2022-08-28T02:00:13.450Z,18.52
2022-08-28T02:01:11.648Z,18.52
2022-08-28T02:02:11.973Z,18.52
2022-08-28T02:03:12.262Z,18.52
2022-08-28T02:04:11.650Z,18.52
2022-08-28T02:05:11.963Z,18.53
2022-08-28T02:06:11.844Z,18.53
2022-08-28T02:07:12.004Z,18.52
2022-08-28T02:08:11.708Z,18.51
2022-08-28T02:09:18.699Z,18.51
2022-08-28T02:10:12.046Z,18.51
2022-08-28T02:11:11.547Z,18.51
2022-08-28T02:12:11.594Z,18.5
2022-08-28T02:13:11.599Z,18.49
2022-08-28T02:14:11.443Z,18.48
2022-08-28T02:15:11.887Z,18.49
2022-08-28T02:16:12.132Z,18.48
2022-08-28T02:17:11.620Z,18.49
2022-08-28T02:18:11.911Z,18.48
2022-08-28T02:19:11.290Z,18.49
2022-08-28T02:20:11.571Z,18.50
2022-08-28T02:21:11.434Z,18.51
2022-08-28T02:22:11.651Z,18.51
2022-08-28T02:23:11.866Z,18.51
2022-08-28T02:24:11.936Z,18.49
2022-08-28T02:25:12.498Z,18.48
2022-08-28T02:26:11.726Z,18.49
2022-08-28T02:27:11.700Z,18.49
2022-08-28T02:28:12.017Z,18.47
2022-08-28T02:29:11.792Z,18.47
2022-08-28T02:30:12.442Z,18.46
2022-08-28T02:31:11.892Z,18.46
2022-08-28T02:32:12.252Z,18.46
2022-08-28T02:33:11.428Z,18.46
2022-08-28T02:34:11.602Z,18.46
2022-08-28T02:35:16.012Z,18.46
2022-08-28T02:36:11.208Z,18.45
2022-08-28T02:37:11.401Z,18.44
2022-08-28T02:38:11.620Z,18.44
2022-08-28T02:39:12.092Z,18.43
2022-08-28T02:40:11.589Z,18.43
2022-08-28T02:41:11.683Z,18.42
2022-08-28T02:42:11.458Z,18.40
2022-08-28T02:43:11.818Z,18.39
2022-08-28T02:44:12.025Z,18.39
2022-08-28T02:45:11.422Z,18.39
2022-08-28T02:46:11.817Z,18.37
2022-08-28T02:47:12.256Z,18.36
2022-08-28T02:48:21.361Z,18.35
2022-08-28T02:49:11.510Z,18.35
2022-08-28T02:50:11.741Z,18.34
2022-08-28T02:51:12.374Z,18.32
2022-08-28T02:52:11.642Z,18.32
2022-08-28T02:53:11.876Z,18.33
2022-08-28T02:54:11.835Z,18.34
2022-08-28T02:55:11.746Z,18.34
2022-08-28T02:56:11.904Z,18.32
2022-08-28T02:57:12.352Z,18.31
2022-08-28T02:58:12.062Z,18.32
2022-08-28T02:59:11.546Z,18.30
2022-08-28T03:00:12.554Z,18.29
2022-08-28T03:01:12.012Z,18.28
2022-08-28T03:02:11.350Z,18.26
2022-08-28T03:03:11.529Z,18.24
2022-08-28T03:04:12.101Z,18.22
2022-08-28T03:05:11.942Z,18.23
2022-08-28T03:06:11.881Z,18.24
2022-08-28T03:07:12.041Z,18.25
2022-08-28T03:08:11.362Z,18.25
2022-08-28T03:09:11.882Z,18.25
2022-08-28T03:10:11.938Z,18.25
2022-08-28T03:11:12.298Z,18.25
2022-08-28T03:12:11.886Z,18.24
2022-08-28T03:13:11.714Z,18.24
2022-08-28T03:14:11.802Z,18.25
2022-08-28T03:15:12.339Z,18.24
2022-08-28T03:16:11.778Z,18.24
2022-08-28T03:17:11.940Z,18.24
2022-08-28T03:18:15.226Z,18.25
2022-08-28T03:19:12.236Z,18.23
2022-08-28T03:20:11.421Z,18.22
2022-08-28T03:21:11.884Z,18.19
2022-08-28T03:22:12.004Z,18.19
2022-08-28T03:23:11.161Z,18.18
2022-08-28T03:24:11.287Z,18.16
2022-08-28T03:25:11.760Z,18.16
2022-08-28T03:26:12.643Z,18.12
2022-08-28T03:27:11.856Z,18.12
2022-08-28T03:28:12.185Z,18.08
2022-08-28T03:29:11.780Z,18.07
2022-08-28T03:30:12.718Z,18.07
2022-08-28T03:31:12.141Z,18.06
2022-08-28T03:32:11.588Z,18.06
2022-08-28T03:33:12.319Z,18.05
2022-08-28T03:34:12.189Z,18.05
2022-08-28T03:35:11.610Z,18.04
2022-08-28T03:36:11.647Z,18.03
2022-08-28T03:37:12.018Z,17.99
2022-08-28T03:38:11.366Z,17.97
2022-08-28T03:39:11.767Z,17.95
2022-08-28T03:40:12.310Z,17.95
2022-08-28T03:41:11.517Z,17.95
2022-08-28T03:42:11.602Z,17.95
2022-08-28T03:43:12.154Z,17.92
2022-08-28T03:44:11.143Z,17.93
2022-08-28T03:45:11.610Z,17.92
2022-08-28T03:46:11.631Z,17.91
2022-08-28T03:47:11.651Z,17.91
2022-08-28T03:48:12.167Z,17.90
2022-08-28T03:49:11.559Z,17.89
2022-08-28T03:50:14.705Z,17.89
2022-08-28T03:51:11.959Z,17.85
2022-08-28T03:52:11.344Z,17.83
2022-08-28T03:53:11.646Z,17.80
2022-08-28T03:54:11.965Z,17.75
2022-08-28T03:55:12.366Z,17.72
2022-08-28T03:56:11.599Z,17.70
2022-08-28T03:57:11.831Z,17.70
2022-08-28T03:58:12.032Z,17.70
2022-08-28T03:59:11.602Z,17.71
2022-08-28T04:00:12.780Z,17.70
2022-08-28T04:01:11.890Z,17.70
2022-08-28T04:02:12.132Z,17.69
2022-08-28T04:03:11.624Z,17.66
2022-08-28T04:04:11.915Z,17.64
2022-08-28T04:05:12.002Z,17.61
2022-08-28T04:06:11.389Z,17.59
2022-08-28T04:07:11.716Z,17.57
2022-08-28T04:08:12.241Z,17.54
2022-08-28T04:09:12.118Z,17.52
2022-08-28T04:10:11.716Z,17.50
2022-08-28T04:11:12.116Z,17.49
2022-08-28T04:12:11.235Z,17.50
2022-08-28T04:13:11.627Z,17.49
2022-08-28T04:14:11.594Z,17.48
2022-08-28T04:15:12.202Z,17.48
2022-08-28T04:16:12.033Z,17.48
2022-08-28T04:17:11.673Z,17.46
2022-08-28T04:18:11.786Z,17.47
2022-08-28T04:19:11.944Z,17.45
2022-08-28T04:20:12.475Z,17.44
2022-08-28T04:21:11.878Z,17.41
2022-08-28T04:22:13.418Z,17.42
2022-08-28T04:23:11.945Z,17.42
2022-08-28T04:24:13.658Z,17.43
2022-08-28T04:25:12.405Z,17.41
2022-08-28T04:26:11.614Z,17.39
2022-08-28T04:27:11.995Z,17.40
2022-08-28T04:28:11.879Z,17.40
2022-08-28T04:29:11.824Z,17.39
2022-08-28T04:30:14.093Z,17.40
2022-08-28T04:31:11.684Z,17.39
2022-08-28T04:32:12.452Z,17.41
2022-08-28T04:33:11.895Z,17.40
2022-08-28T04:34:12.237Z,17.40
2022-08-28T04:35:12.048Z,17.37
2022-08-28T04:36:11.936Z,17.37
2022-08-28T04:37:12.528Z,17.35
2022-08-28T04:38:11.853Z,17.36
2022-08-28T04:39:12.283Z,17.34
2022-08-28T04:40:11.817Z,17.33
2022-08-28T04:41:12.264Z,17.34
2022-08-28T04:42:11.871Z,17.34
2022-08-28T04:43:12.319Z,17.34
2022-08-28T04:44:11.959Z,17.33
2022-08-28T04:45:12.638Z,17.34
2022-08-28T04:46:12.008Z,17.36
2022-08-28T04:47:11.383Z,17.37
2022-08-28T04:48:17.615Z,17.35
2022-08-28T04:49:11.904Z,17.34
2022-08-28T04:50:12.237Z,17.33
2022-08-28T04:51:11.819Z,17.33
2022-08-28T04:52:12.137Z,17.35
2022-08-28T04:53:11.725Z,17.36
2022-08-28T04:54:12.219Z,17.37
2022-08-28T04:55:11.615Z,17.38
2022-08-28T04:56:11.807Z,17.38
2022-08-28T04:57:13.225Z,17.36
2022-08-28T04:58:11.819Z,17.37
2022-08-28T04:59:12.206Z,17.37
2022-08-28T05:00:12.395Z,17.35
2022-08-28T05:01:11.928Z,17.35
2022-08-28T05:02:12.504Z,17.36
2022-08-28T05:03:11.771Z,17.35
2022-08-28T05:04:12.176Z,17.37
2022-08-28T05:05:11.625Z,17.36
2022-08-28T05:06:11.864Z,17.37
2022-08-28T05:07:12.346Z,17.36
2022-08-28T05:08:12.057Z,17.35
2022-08-28T05:09:11.504Z,17.34
2022-08-28T05:10:12.159Z,17.37
2022-08-28T05:11:12.053Z,17.36
2022-08-28T05:12:11.512Z,17.34
2022-08-28T05:13:12.007Z,17.35
2022-08-28T05:14:15.398Z,17.33
2022-08-28T05:15:12.510Z,17.34
2022-08-28T05:16:11.763Z,17.33
2022-08-28T05:17:11.533Z,17.33
2022-08-28T05:18:11.522Z,17.32
2022-08-28T05:19:11.915Z,17.32
2022-08-28T05:20:12.454Z,17.28
2022-08-28T05:21:16.461Z,17.27
2022-08-28T05:22:11.739Z,17.28
2022-08-28T05:23:11.989Z,17.27
2022-08-28T05:24:11.499Z,17.28
2022-08-28T05:25:12.065Z,17.27
2022-08-28T05:26:11.269Z,17.27
2022-08-28T05:27:11.914Z,17.27
2022-08-28T05:28:16.206Z,17.27
2022-08-28T05:29:11.455Z,17.26
2022-08-28T05:30:12.418Z,17.26
2022-08-28T05:31:11.945Z,17.26
2022-08-28T05:32:12.471Z,17.24
2022-08-28T05:33:11.737Z,17.23
2022-08-28T05:34:12.535Z,17.24
2022-08-28T05:35:12.536Z,17.26
2022-08-28T05:36:12.249Z,17.24
2022-08-28T05:37:14.508Z,17.23
2022-08-28T05:38:12.360Z,17.23
2022-08-28T05:39:11.960Z,17.21
2022-08-28T05:40:13.039Z,17.23
2022-08-28T05:41:12.099Z,17.20
2022-08-28T05:42:12.212Z,17.20
2022-08-28T05:43:11.554Z,17.20
2022-08-28T05:44:11.883Z,17.18
2022-08-28T05:45:12.419Z,17.16
2022-08-28T05:46:11.711Z,17.16
2022-08-28T05:47:12.457Z,17.15
2022-08-28T05:48:12.123Z,17.15
2022-08-28T05:49:14.495Z,17.16
2022-08-28T05:50:12.073Z,17.18
2022-08-28T05:51:11.531Z,17.18
2022-08-28T05:52:12.207Z,17.18
2022-08-28T05:53:11.622Z,17.20
2022-08-28T05:54:11.966Z,17.20
2022-08-28T05:55:12.580Z,17.18
2022-08-28T05:56:11.625Z,17.16
2022-08-28T05:57:12.017Z,17.18
2022-08-28T05:58:11.262Z,17.17
2022-08-28T05:59:11.432Z,17.18
2022-08-28T06:00:13.085Z,17.18
2022-08-28T06:01:11.768Z,17.18
2022-08-28T06:02:13.046Z,17.18
2022-08-28T06:03:12.008Z,17.20
2022-08-28T06:04:12.324Z,17.20
2022-08-28T06:05:12.954Z,17.19
2022-08-28T06:06:11.945Z,17.18
2022-08-28T06:07:12.609Z,17.18
2022-08-28T06:08:12.428Z,17.17
2022-08-28T06:09:12.353Z,17.16
2022-08-28T06:10:14.869Z,17.18
2022-08-28T06:11:12.506Z,17.18
2022-08-28T06:12:12.341Z,17.21
2022-08-28T06:13:13.236Z,17.19
2022-08-28T06:14:12.102Z,17.20
2022-08-28T06:15:12.151Z,17.19
2022-08-28T06:16:12.079Z,17.20
2022-08-28T06:17:11.723Z,17.20
2022-08-28T06:18:12.403Z,17.20
2022-08-28T06:19:11.705Z,17.19
2022-08-28T06:20:12.190Z,17.19
2022-08-28T06:21:11.726Z,17.21
2022-08-28T06:22:11.874Z,17.20
2022-08-28T06:23:12.334Z,17.21
2022-08-28T06:24:12.229Z,17.20
2022-08-28T06:25:11.946Z,17.21
2022-08-28T06:26:12.122Z,17.20
2022-08-28T06:27:11.565Z,17.20
2022-08-28T06:28:13.247Z,17.21
2022-08-28T06:29:11.619Z,17.23
2022-08-28T06:30:12.896Z,17.25
2022-08-28T06:31:33.416Z,17.27
2022-08-28T06:32:12.273Z,17.27
2022-08-28T06:33:11.592Z,17.28
2022-08-28T06:34:11.836Z,17.29
2022-08-28T06:35:14.487Z,17.29
2022-08-28T06:36:11.698Z,17.28
2022-08-28T06:37:12.061Z,17.28
2022-08-28T06:38:11.904Z,17.28
2022-08-28T06:39:12.596Z,17.28
2022-08-28T06:40:12.108Z,17.29
2022-08-28T06:41:11.383Z,17.29
2022-08-28T06:42:11.947Z,17.30
2022-08-28T06:43:12.153Z,17.30
2022-08-28T06:44:11.867Z,17.31
2022-08-28T06:45:12.267Z,17.34
2022-08-28T06:46:12.005Z,17.35
2022-08-28T06:47:11.598Z,17.35
2022-08-28T06:48:11.958Z,17.35
2022-08-28T06:49:11.641Z,17.34
2022-08-28T06:50:12.324Z,17.36
2022-08-28T06:51:12.193Z,17.37
2022-08-28T06:52:12.099Z,17.34
2022-08-28T06:53:11.524Z,17.35
2022-08-28T06:54:11.859Z,17.35
2022-08-28T06:55:12.183Z,17.37
2022-08-28T06:56:11.707Z,17.37
2022-08-28T06:57:11.984Z,17.38
2022-08-28T06:58:12.000Z,17.40
2022-08-28T06:59:11.676Z,17.39
2022-08-28T07:00:13.377Z,17.38
2022-08-28T07:01:12.205Z,17.39
2022-08-28T07:02:12.236Z,17.39
2022-08-28T07:03:11.868Z,17.40
2022-08-28T07:04:12.083Z,17.38
2022-08-28T07:05:12.092Z,17.42
2022-08-28T07:06:12.196Z,17.43
2022-08-28T07:07:13.088Z,17.44
2022-08-28T07:08:12.148Z,17.45
2022-08-28T07:09:11.832Z,17.46
2022-08-28T07:10:12.195Z,17.49
2022-08-28T07:11:11.533Z,17.50
2022-08-28T07:12:12.022Z,17.50
2022-08-28T07:13:11.798Z,17.54
2022-08-28T07:14:12.087Z,17.54
2022-08-28T07:15:11.685Z,17.56
2022-08-28T07:16:12.093Z,17.57
2022-08-28T07:17:11.544Z,17.59
2022-08-28T07:18:12.229Z,17.59
2022-08-28T07:19:14.337Z,17.59
2022-08-28T07:20:12.003Z,17.60
2022-08-28T07:21:16.335Z,17.60
2022-08-28T07:22:11.969Z,17.62
2022-08-28T07:23:12.295Z,17.66
2022-08-28T07:24:12.517Z,17.66
2022-08-28T07:25:12.189Z,17.66
2022-08-28T07:26:11.592Z,17.68
2022-08-28T07:27:14.735Z,17.67
2022-08-28T07:28:11.914Z,17.70
2022-08-28T07:29:15.357Z,17.72
2022-08-28T07:30:12.361Z,17.75
2022-08-28T07:31:12.009Z,17.75
2022-08-28T07:32:11.484Z,17.74
2022-08-28T07:33:12.289Z,17.75
2022-08-28T07:34:11.937Z,17.76
2022-08-28T07:35:12.722Z,17.80
2022-08-28T07:37:18.890Z,17.79
2022-08-28T07:38:12.608Z,17.82
2022-08-28T07:39:12.183Z,17.88
2022-08-28T07:40:15.495Z,17.89
2022-08-28T07:41:12.272Z,17.89
2022-08-28T07:42:11.778Z,17.90
2022-08-28T07:43:12.318Z,17.88
2022-08-28T07:44:12.023Z,17.88
2022-08-28T07:45:11.855Z,17.90
2022-08-28T07:46:13.187Z,17.89
2022-08-28T07:47:12.775Z,17.89
2022-08-28T07:48:16.062Z,17.86
2022-08-28T07:49:11.620Z,17.87
2022-08-28T07:50:12.201Z,17.88
2022-08-28T07:51:11.571Z,17.89
2022-08-28T07:52:11.464Z,17.89
2022-08-28T07:53:11.424Z,17.91
2022-08-28T07:55:12.806Z,17.96
2022-08-28T07:56:12.227Z,18
2022-08-28T07:57:11.527Z,18.01
2022-08-28T07:58:11.707Z,18.01
2022-08-28T07:59:13.936Z,18.03
2022-08-28T08:00:13.415Z,18.06
2022-08-28T08:01:11.789Z,18.12
2022-08-28T08:02:12.204Z,18.17
2022-08-28T08:03:12.168Z,18.22
2022-08-28T08:04:11.478Z,18.22
2022-08-28T08:05:11.716Z,18.25
2022-08-28T08:06:11.708Z,18.32
2022-08-28T08:07:12.353Z,18.34
2022-08-28T08:08:11.898Z,18.28
2022-08-28T08:09:11.647Z,18.30
2022-08-28T08:10:13.085Z,18.29
2022-08-28T08:11:16.620Z,18.27
2022-08-28T08:12:14.328Z,18.30
2022-08-28T08:13:12.227Z,18.34
2022-08-28T08:14:11.802Z,18.35
2022-08-28T08:15:12.539Z,18.35
2022-08-28T08:16:12.165Z,18.36
2022-08-28T08:17:11.571Z,18.38
2022-08-28T08:18:12.275Z,18.41
2022-08-28T08:19:11.804Z,18.45
2022-08-28T08:20:12.317Z,18.49
2022-08-28T08:21:11.518Z,18.48
2022-08-28T08:22:11.885Z,18.54
2022-08-28T08:23:12.521Z,18.58
2022-08-28T08:24:13.094Z,18.58
2022-08-28T08:25:12.263Z,18.60
2022-08-28T08:26:11.879Z,18.61
2022-08-28T08:27:12.122Z,18.61
2022-08-28T08:28:13.695Z,18.66
2022-08-28T08:29:12.142Z,18.71
2022-08-28T08:30:12.393Z,18.67
2022-08-28T08:31:12.335Z,18.67
2022-08-28T08:32:11.941Z,18.65
2022-08-28T08:33:12.015Z,18.69
2022-08-28T08:34:11.670Z,18.73
2022-08-28T08:35:12.028Z,18.76
2022-08-28T08:36:11.295Z,18.79
2022-08-28T08:37:11.968Z,18.82
2022-08-28T08:38:12.722Z,18.83
2022-08-28T08:39:13.844Z,18.85
2022-08-28T08:40:14.920Z,18.90
2022-08-28T08:41:12.398Z,18.96
2022-08-28T08:42:11.817Z,19.03
2022-08-28T08:43:12.262Z,19.13
2022-08-28T08:44:11.996Z,19.12
2022-08-28T08:45:11.981Z,19.10
2022-08-28T08:46:12.410Z,19.09
2022-08-28T08:47:18.329Z,19.06
2022-08-28T08:48:14.880Z,19.08
2022-08-28T08:49:11.249Z,19.09
2022-08-28T08:50:11.700Z,19.17
2022-08-28T08:51:11.632Z,19.16
2022-08-28T08:52:12.197Z,19.22
2022-08-28T08:53:11.519Z,19.18
2022-08-28T08:54:11.770Z,19.16
2022-08-28T08:55:15.161Z,19.12
2022-08-28T08:56:11.318Z,19.11
2022-08-28T08:57:11.639Z,19.07
2022-08-28T08:58:12.253Z,19.11
2022-08-28T08:59:12.038Z,19.12
2022-08-28T09:01:11.637Z,19.12
2022-08-28T09:02:34.836Z,19.17
2022-08-28T09:03:11.825Z,19.17
2022-08-28T09:04:15.696Z,19.11
2022-08-28T09:05:12.491Z,19.09
2022-08-28T09:06:12.118Z,19.14
2022-08-28T09:07:11.367Z,19.17
2022-08-28T09:08:11.634Z,19.19
2022-08-28T09:09:12.136Z,19.20
2022-08-28T09:10:11.658Z,19.21
2022-08-28T09:11:12.515Z,19.28
2022-08-28T09:12:12.382Z,19.29
2022-08-28T09:13:12.185Z,19.30
2022-08-28T09:14:11.672Z,19.36
2022-08-28T09:15:11.980Z,19.37
2022-08-28T09:16:11.878Z,19.40
2022-08-28T09:17:11.808Z,19.38
2022-08-28T09:18:12.157Z,19.39
2022-08-28T09:19:12.058Z,19.43
2022-08-28T09:20:11.688Z,19.48
2022-08-28T09:21:12.037Z,19.51
2022-08-28T09:22:11.606Z,19.51
2022-08-28T09:23:18.021Z,19.53
2022-08-28T09:24:15.980Z,19.58
2022-08-28T09:25:13.206Z,19.61
2022-08-28T09:26:11.494Z,19.66
2022-08-28T09:27:18.375Z,19.65
2022-08-28T09:28:11.913Z,19.67
2022-08-28T09:29:12.146Z,19.60
2022-08-28T09:30:12.445Z,19.56
2022-08-28T09:31:11.963Z,19.56
2022-08-28T09:32:11.353Z,19.62
2022-08-28T09:33:11.663Z,19.66
2022-08-28T09:34:11.811Z,19.69
2022-08-28T09:35:12.357Z,19.69
2022-08-28T09:36:11.635Z,19.70
2022-08-28T09:37:13.962Z,19.75
2022-08-28T09:38:11.079Z,19.74
2022-08-28T09:39:11.578Z,19.74
2022-08-28T09:40:12.604Z,19.80
2022-08-28T09:41:12.339Z,19.79
2022-08-28T09:42:11.724Z,19.75
2022-08-28T09:43:11.878Z,19.65
2022-08-28T09:44:11.859Z,19.64
2022-08-28T09:45:13.893Z,19.62
2022-08-28T09:46:11.971Z,19.65
2022-08-28T09:47:11.573Z,19.71
2022-08-28T09:48:12.142Z,19.67
2022-08-28T09:49:11.791Z,19.68
2022-08-28T09:50:12.318Z,19.70
2022-08-28T09:51:11.967Z,19.74
2022-08-28T09:52:12.455Z,19.72
2022-08-28T09:53:12.278Z,19.77
2022-08-28T09:54:11.851Z,19.77
2022-08-28T09:55:12.380Z,19.80
2022-08-28T09:56:11.805Z,19.83
2022-08-28T09:57:12.006Z,19.91
2022-08-28T09:58:11.680Z,20.00
2022-08-28T09:59:11.897Z,20.04
2022-08-28T10:00:13.494Z,20.03
2022-08-28T10:01:11.816Z,20.01
2022-08-28T10:02:12.337Z,20.00
2022-08-28T10:03:11.656Z,20.01
2022-08-28T10:04:12.351Z,20.03
2022-08-28T10:05:11.730Z,20.02
2022-08-28T10:06:12.094Z,19.98
2022-08-28T10:07:11.376Z,20.00
2022-08-28T10:08:12.052Z,20.03
2022-08-28T10:09:12.093Z,20.03
2022-08-28T10:10:11.966Z,20.07
2022-08-28T10:11:11.435Z,20.08
2022-08-28T10:12:11.727Z,20.10
2022-08-28T10:13:12.147Z,20.12
2022-08-28T10:14:11.743Z,20.17
2022-08-28T10:15:12.550Z,20.19
2022-08-28T10:16:11.993Z,20.21
2022-08-28T10:17:11.441Z,20.18
2022-08-28T10:18:11.960Z,20.20
2022-08-28T10:19:11.506Z,20.26
2022-08-28T10:20:11.693Z,20.20
2022-08-28T10:21:11.835Z,20.18
2022-08-28T10:22:11.862Z,20.17
2022-08-28T10:23:17.038Z,20.17
2022-08-28T10:24:12.581Z,20.20
2022-08-28T10:25:11.983Z,20.21
2022-08-28T10:26:11.552Z,20.25
2022-08-28T10:27:11.658Z,20.30
2022-08-28T10:28:11.805Z,20.27
2022-08-28T10:29:11.425Z,20.25
2022-08-28T10:30:17.522Z,20.25
2022-08-28T10:31:12.056Z,20.29
2022-08-28T10:32:11.439Z,20.27
2022-08-28T10:33:11.824Z,20.28
2022-08-28T10:34:11.799Z,20.32
2022-08-28T10:35:12.432Z,20.30
2022-08-28T10:36:36.062Z,20.27
2022-08-28T10:37:11.618Z,20.27
2022-08-28T10:38:12.108Z,20.25
2022-08-28T10:39:11.589Z,20.24
2022-08-28T10:40:12.193Z,20.27
2022-08-28T10:41:11.651Z,20.28
2022-08-28T10:42:11.620Z,20.32
2022-08-28T10:43:11.941Z,20.36
2022-08-28T10:44:12.192Z,20.35
2022-08-28T10:45:12.370Z,20.37
2022-08-28T10:46:11.360Z,20.36
2022-08-28T10:47:11.277Z,20.36
2022-08-28T10:48:11.365Z,20.34
2022-08-28T10:49:11.412Z,20.38
2022-08-28T10:50:11.619Z,20.38
2022-08-28T10:51:11.606Z,20.43
2022-08-28T10:52:11.777Z,20.36
2022-08-28T10:53:12.201Z,20.30
2022-08-28T10:54:11.590Z,20.29
2022-08-28T10:55:11.928Z,20.33
2022-08-28T10:56:12.024Z,20.40
2022-08-28T10:57:11.579Z,20.47
2022-08-28T10:58:28.913Z,20.53
2022-08-28T10:59:12.501Z,20.53
2022-08-28T11:00:13.054Z,20.52
2022-08-28T11:01:11.492Z,20.53
2022-08-28T11:02:11.601Z,20.54
2022-08-28T11:03:37.146Z,20.59
2022-08-28T11:04:11.388Z,20.59
2022-08-28T11:05:12.507Z,20.64
2022-08-28T11:06:12.010Z,20.71
2022-08-28T11:07:11.319Z,20.79
2022-08-28T11:08:11.884Z,20.88
2022-08-28T11:09:12.404Z,20.93
2022-08-28T11:10:12.051Z,20.95
2022-08-28T11:11:11.412Z,21.00
2022-08-28T11:12:12.376Z,20.95
2022-08-28T11:13:17.876Z,20.89
2022-08-28T11:14:11.938Z,20.90
2022-08-28T11:15:12.591Z,20.86
2022-08-28T11:16:11.793Z,20.83
2022-08-28T11:17:14.269Z,20.81
2022-08-28T11:18:11.733Z,20.89
2022-08-28T11:19:12.153Z,20.88
2022-08-28T11:20:11.852Z,20.85
2022-08-28T11:21:11.974Z,20.87
2022-08-28T11:22:12.622Z,20.96
2022-08-28T11:23:13.406Z,20.97
2022-08-28T11:24:12.709Z,20.95
2022-08-28T11:25:14.847Z,20.93
2022-08-28T11:26:12.281Z,20.92
2022-08-28T11:27:11.935Z,20.96
2022-08-28T11:28:11.997Z,21.01
2022-08-28T11:29:11.305Z,21.03
2022-08-28T11:30:12.273Z,21.02
2022-08-28T11:31:19.074Z,21.01
2022-08-28T11:32:12.183Z,21.04
2022-08-28T11:33:11.709Z,21.04
2022-08-28T11:34:12.059Z,21.05
2022-08-28T11:35:25.720Z,21.05
2022-08-28T11:36:12.167Z,21.05
2022-08-28T11:37:14.383Z,21.07
2022-08-28T11:38:11.573Z,21.10
2022-08-28T11:39:11.746Z,21.14
2022-08-28T11:40:12.457Z,21.15
2022-08-28T11:41:12.138Z,21.15
2022-08-28T11:42:11.175Z,21.16
2022-08-28T11:43:11.722Z,21.20
2022-08-28T11:44:12.001Z,21.17
2022-08-28T11:45:12.091Z,21.20
2022-08-28T11:46:11.482Z,21.20
2022-08-28T11:47:12.629Z,21.10
2022-08-28T11:48:12.327Z,21.12
2022-08-28T11:49:11.630Z,21.17
2022-08-28T11:50:12.299Z,21.25
2022-08-28T11:51:11.802Z,21.27
2022-08-28T11:52:12.153Z,21.33
2022-08-28T11:53:11.380Z,21.33
2022-08-28T11:54:11.955Z,21.29
2022-08-28T11:55:12.715Z,21.32
2022-08-28T11:56:13.021Z,21.37
2022-08-28T11:57:12.066Z,21.36
2022-08-28T11:59:13.860Z,21.22
2022-08-28T12:00:13.198Z,21.22
2022-08-28T12:01:11.906Z,21.17
2022-08-28T12:02:12.425Z,21.13
2022-08-28T12:03:11.932Z,21.16
2022-08-28T12:04:12.818Z,21.31
2022-08-28T12:05:12.423Z,21.40
2022-08-28T12:06:11.899Z,21.40
2022-08-28T12:07:12.519Z,21.39
2022-08-28T12:08:12.407Z,21.43
2022-08-28T12:09:12.261Z,21.45
2022-08-28T12:10:12.015Z,21.49
2022-08-28T12:11:11.772Z,21.52
2022-08-28T12:12:11.804Z,21.51
2022-08-28T12:13:12.336Z,21.48
2022-08-28T12:14:11.631Z,21.50
2022-08-28T12:15:12.098Z,21.59
2022-08-28T12:16:12.021Z,21.63
2022-08-28T12:17:12.203Z,21.63
2022-08-28T12:18:11.695Z,21.71
2022-08-28T12:19:12.259Z,21.74
2022-08-28T12:20:11.771Z,21.77
2022-08-28T12:21:12.613Z,21.78
2022-08-28T12:22:11.749Z,21.82
2022-08-28T12:23:12.489Z,21.87
2022-08-28T12:24:18.551Z,21.86
2022-08-28T12:25:11.755Z,21.89
2022-08-28T12:26:11.723Z,21.88
2022-08-28T12:27:12.153Z,21.83
2022-08-28T12:28:17.198Z,21.80
2022-08-28T12:29:11.811Z,21.79
2022-08-28T12:30:13.218Z,21.80
2022-08-28T12:31:12.077Z,21.79
2022-08-28T12:32:11.698Z,21.81
2022-08-28T12:33:12.341Z,21.86
2022-08-28T12:34:12.016Z,21.88
2022-08-28T12:35:11.531Z,21.93
2022-08-28T12:36:11.548Z,21.92
2022-08-28T12:37:12.035Z,21.90
2022-08-28T12:38:11.806Z,21.92
2022-08-28T12:39:11.973Z,21.92
2022-08-28T12:40:12.674Z,21.86
2022-08-28T12:41:11.800Z,21.85
2022-08-28T12:42:12.426Z,21.87
2022-08-28T12:43:15.341Z,21.88
2022-08-28T12:44:12.048Z,21.88
2022-08-28T12:45:11.873Z,21.92
2022-08-28T12:46:23.319Z,22.01
2022-08-28T12:47:11.590Z,22.01
2022-08-28T12:48:11.905Z,22.01
2022-08-28T12:49:12.212Z,22.03
2022-08-28T12:50:11.941Z,22.02
2022-08-28T12:51:12.636Z,22.03
2022-08-28T12:52:12.092Z,21.99
2022-08-28T12:53:12.065Z,22.01
2022-08-28T12:54:11.907Z,22.00
2022-08-28T12:55:12.308Z,22
2022-08-28T12:56:11.903Z,21.99